sensor_id;sensor_type;location;lat;lon;timestamp;pressure;altitude;pressure_sealevel;temperature;humidity
50292;BME280;36190;54.980;73.388;2022-10-28T00:00:55;101713.81;;;-3.13;67.51
50292;BME280;36190;54.980;73.388;2022-10-28T00:03:29;101719.34;;;-3.24;67.65
50292;BME280;36190;54.980;73.388;2022-10-28T00:06:01;101710.94;;;-3.34;67.50
50292;BME280;36190;54.980;73.388;2022-10-28T00:08:28;101733.88;;;-3.45;67.71
50292;BME280;36190;54.980;73.388;2022-10-28T00:11:02;101731.59;;;-3.56;67.62
50292;BME280;36190;54.980;73.388;2022-10-28T00:13:29;101731.81;;;-3.64;67.93
50292;BME280;36190;54.980;73.388;2022-10-28T00:16:03;101734.50;;;-3.67;67.78
50292;BME280;36190;54.980;73.388;2022-10-28T00:18:32;101727.66;;;-3.71;68.22
50292;BME280;36190;54.980;73.388;2022-10-28T00:21:00;101729.38;;;-3.70;68.32
50292;BME280;36190;54.980;73.388;2022-10-28T00:23:28;101732.69;;;-3.65;68.19
50292;BME280;36190;54.980;73.388;2022-10-28T00:26:03;101741.34;;;-3.63;68.21
50292;BME280;36190;54.980;73.388;2022-10-28T00:28:31;101740.44;;;-3.62;68.36
50292;BME280;36190;54.980;73.388;2022-10-28T00:31:03;101736.03;;;-3.60;68.21
50292;BME280;36190;54.980;73.388;2022-10-28T00:33:32;101733.25;;;-3.53;68.30
50292;BME280;36190;54.980;73.388;2022-10-28T00:36:11;101738.31;;;-3.47;68.05
50292;BME280;36190;54.980;73.388;2022-10-28T00:38:38;101737.31;;;-3.43;67.99
50292;BME280;36190;54.980;73.388;2022-10-28T00:41:07;101746.03;;;-3.44;68.15
50292;BME280;36190;54.980;73.388;2022-10-28T00:43:37;101735.88;;;-3.53;68.06
50292;BME280;36190;54.980;73.388;2022-10-28T00:46:09;101742.88;;;-3.55;68.45
50292;BME280;36190;54.980;73.388;2022-10-28T00:48:42;101732.63;;;-3.62;68.58
50292;BME280;36190;54.980;73.388;2022-10-28T00:51:09;101748.53;;;-3.71;69.03
50292;BME280;36190;54.980;73.388;2022-10-28T00:53:38;101741.78;;;-3.78;69.03
50292;BME280;36190;54.980;73.388;2022-10-28T00:56:07;101742.84;;;-3.87;69.29
50292;BME280;36190;54.980;73.388;2022-10-28T00:58:36;101740.47;;;-3.95;69.66
50292;BME280;36190;54.980;73.388;2022-10-28T01:01:04;101732.97;;;-4.07;70.09
50292;BME280;36190;54.980;73.388;2022-10-28T01:03:31;101739.16;;;-4.11;70.07
50292;BME280;36190;54.980;73.388;2022-10-28T01:06:00;101734.09;;;-4.18;70.29
50292;BME280;36190;54.980;73.388;2022-10-28T01:08:27;101740.25;;;-4.20;70.59
50292;BME280;36190;54.980;73.388;2022-10-28T01:11:12;101742.88;;;-4.22;70.74
50292;BME280;36190;54.980;73.388;2022-10-28T01:13:55;101743.91;;;-4.28;70.82
50292;BME280;36190;54.980;73.388;2022-10-28T01:16:34;101755.25;;;-4.30;71.03
50292;BME280;36190;54.980;73.388;2022-10-28T01:19:24;101748.47;;;-4.37;71.23
50292;BME280;36190;54.980;73.388;2022-10-28T01:22:15;101757.19;;;-4.38;71.32
50292;BME280;36190;54.980;73.388;2022-10-28T01:25:01;101748.72;;;-4.47;71.37
50292;BME280;36190;54.980;73.388;2022-10-28T01:27:54;101740.41;;;-4.61;71.47
50292;BME280;36190;54.980;73.388;2022-10-28T01:30:28;101759.41;;;-4.58;71.62
50292;BME280;36190;54.980;73.388;2022-10-28T01:33:07;101756.88;;;-4.61;71.95
50292;BME280;36190;54.980;73.388;2022-10-28T01:35:36;101752.53;;;-4.60;71.74
50292;BME280;36190;54.980;73.388;2022-10-28T01:38:15;101756.19;;;-4.69;72.02
50292;BME280;36190;54.980;73.388;2022-10-28T01:40:52;101751.97;;;-4.75;72.10
50292;BME280;36190;54.980;73.388;2022-10-28T01:43:25;101768.63;;;-4.82;72.41
50292;BME280;36190;54.980;73.388;2022-10-28T01:45:59;101760.94;;;-4.88;72.42
50292;BME280;36190;54.980;73.388;2022-10-28T01:48:33;101761.00;;;-4.90;72.77
50292;BME280;36190;54.980;73.388;2022-10-28T01:51:04;101760.22;;;-4.93;72.84
50292;BME280;36190;54.980;73.388;2022-10-28T01:53:37;101768.94;;;-4.94;72.85
50292;BME280;36190;54.980;73.388;2022-10-28T01:56:09;101768.16;;;-5.00;73.07
50292;BME280;36190;54.980;73.388;2022-10-28T01:58:40;101770.75;;;-5.00;73.31
50292;BME280;36190;54.980;73.388;2022-10-28T02:01:09;101771.66;;;-5.01;73.25
50292;BME280;36190;54.980;73.388;2022-10-28T02:03:38;101773.47;;;-5.04;73.35
50292;BME280;36190;54.980;73.388;2022-10-28T02:06:09;101771.78;;;-5.07;73.48
50292;BME280;36190;54.980;73.388;2022-10-28T02:08:51;101767.38;;;-5.05;73.68
50292;BME280;36190;54.980;73.388;2022-10-28T02:11:45;101764.75;;;-5.03;73.58
50292;BME280;36190;54.980;73.388;2022-10-28T02:14:28;101770.06;;;-5.08;73.67
50292;BME280;36190;54.980;73.388;2022-10-28T02:17:00;101753.75;;;-5.16;73.95
50292;BME280;36190;54.980;73.388;2022-10-28T02:19:38;101768.25;;;-5.04;73.92
50292;BME280;36190;54.980;73.388;2022-10-28T02:22:17;101771.59;;;-4.99;73.95
50292;BME280;36190;54.980;73.388;2022-10-28T02:24:53;101769.78;;;-4.95;73.86
50292;BME280;36190;54.980;73.388;2022-10-28T02:27:29;101772.25;;;-4.89;73.81
50292;BME280;36190;54.980;73.388;2022-10-28T02:30:03;101772.22;;;-4.86;73.69
50292;BME280;36190;54.980;73.388;2022-10-28T02:32:34;101772.13;;;-4.81;73.46
50292;BME280;36190;54.980;73.388;2022-10-28T02:35:09;101758.25;;;-4.84;73.47
50292;BME280;36190;54.980;73.388;2022-10-28T02:37:39;101771.06;;;-4.74;73.55
50292;BME280;36190;54.980;73.388;2022-10-28T02:40:12;101772.59;;;-4.65;73.28
50292;BME280;36190;54.980;73.388;2022-10-28T02:42:44;101775.19;;;-4.65;73.36
50292;BME280;36190;54.980;73.388;2022-10-28T02:45:15;101770.81;;;-4.63;73.23
50292;BME280;36190;54.980;73.388;2022-10-28T02:47:47;101778.50;;;-4.57;73.16
50292;BME280;36190;54.980;73.388;2022-10-28T02:50:21;101767.94;;;-4.51;73.12
50292;BME280;36190;54.980;73.388;2022-10-28T02:52:54;101768.63;;;-4.44;73.00
50292;BME280;36190;54.980;73.388;2022-10-28T02:55:28;101767.59;;;-4.37;72.88
50292;BME280;36190;54.980;73.388;2022-10-28T02:57:58;101774.25;;;-4.25;72.64
50292;BME280;36190;54.980;73.388;2022-10-28T03:00:26;101774.09;;;-4.19;72.46
50292;BME280;36190;54.980;73.388;2022-10-28T03:02:53;101772.22;;;-4.14;72.34
50292;BME280;36190;54.980;73.388;2022-10-28T03:05:22;101772.94;;;-4.07;72.10
50292;BME280;36190;54.980;73.388;2022-10-28T03:07:50;101764.25;;;-4.07;72.15
50292;BME280;36190;54.980;73.388;2022-10-28T03:10:17;101775.47;;;-4.05;72.17
50292;BME280;36190;54.980;73.388;2022-10-28T03:12:44;101770.13;;;-3.99;72.15
50292;BME280;36190;54.980;73.388;2022-10-28T03:15:12;101776.00;;;-3.91;71.95
50292;BME280;36190;54.980;73.388;2022-10-28T03:17:39;101775.81;;;-3.83;71.82
50292;BME280;36190;54.980;73.388;2022-10-28T03:20:08;101776.56;;;-3.79;71.60
50292;BME280;36190;54.980;73.388;2022-10-28T03:22:37;101779.91;;;-3.74;71.75
50292;BME280;36190;54.980;73.388;2022-10-28T03:25:05;101778.03;;;-3.69;71.53
50292;BME280;36190;54.980;73.388;2022-10-28T03:27:32;101768.56;;;-3.73;71.52
50292;BME280;36190;54.980;73.388;2022-10-28T03:29:59;101766.59;;;-3.65;71.57
50292;BME280;36190;54.980;73.388;2022-10-28T03:32:27;101769.84;;;-3.56;71.68
50292;BME280;36190;54.980;73.388;2022-10-28T03:34:54;101771.41;;;-3.49;71.45
50292;BME280;36190;54.980;73.388;2022-10-28T03:37:21;101767.09;;;-3.50;71.29
50292;BME280;36190;54.980;73.388;2022-10-28T03:39:50;101761.84;;;-3.50;71.54
50292;BME280;36190;54.980;73.388;2022-10-28T03:42:18;101758.34;;;-3.49;71.52
50292;BME280;36190;54.980;73.388;2022-10-28T03:44:45;101760.94;;;-3.48;71.62
50292;BME280;36190;54.980;73.388;2022-10-28T03:47:12;101757.22;;;-3.39;71.60
50292;BME280;36190;54.980;73.388;2022-10-28T03:49:40;101757.88;;;-3.32;71.43
50292;BME280;36190;54.980;73.388;2022-10-28T03:52:07;101758.69;;;-3.30;71.59
50292;BME280;36190;54.980;73.388;2022-10-28T03:54:34;101762.09;;;-3.28;71.57
50292;BME280;36190;54.980;73.388;2022-10-28T03:57:03;101752.41;;;-3.24;71.51
50292;BME280;36190;54.980;73.388;2022-10-28T03:59:31;101748.72;;;-3.17;71.49
50292;BME280;36190;54.980;73.388;2022-10-28T04:01:58;101742.47;;;-3.11;71.50
50292;BME280;36190;54.980;73.388;2022-10-28T04:04:25;101745.81;;;-3.06;71.38
50292;BME280;36190;54.980;73.388;2022-10-28T04:06:53;101742.22;;;-3.02;71.40
50292;BME280;36190;54.980;73.388;2022-10-28T04:09:20;101740.13;;;-2.91;71.48
50292;BME280;36190;54.980;73.388;2022-10-28T04:11:48;101740.69;;;-2.81;71.09
50292;BME280;36190;54.980;73.388;2022-10-28T04:14:16;101743.97;;;-2.74;71.11
50292;BME280;36190;54.980;73.388;2022-10-28T04:16:44;101747.22;;;-2.67;71.00
50292;BME280;36190;54.980;73.388;2022-10-28T04:19:11;101738.25;;;-2.58;70.95
50292;BME280;36190;54.980;73.388;2022-10-28T04:21:39;101737.97;;;-2.51;70.99
50292;BME280;36190;54.980;73.388;2022-10-28T04:24:06;101739.41;;;-2.40;70.84
50292;BME280;36190;54.980;73.388;2022-10-28T04:26:33;101743.50;;;-2.33;70.64
50292;BME280;36190;54.980;73.388;2022-10-28T04:29:01;101745.16;;;-2.30;70.36
50292;BME280;36190;54.980;73.388;2022-10-28T04:31:30;101728.84;;;-2.37;70.39
50292;BME280;36190;54.980;73.388;2022-10-28T04:33:57;101747.03;;;-2.34;70.38
50292;BME280;36190;54.980;73.388;2022-10-28T04:36:24;101748.66;;;-2.30;70.57
50292;BME280;36190;54.980;73.388;2022-10-28T04:38:52;101735.38;;;-2.24;70.29
50292;BME280;36190;54.980;73.388;2022-10-28T04:41:19;101741.28;;;-2.18;70.35
50292;BME280;36190;54.980;73.388;2022-10-28T04:43:47;101748.81;;;-2.09;70.20
50292;BME280;36190;54.980;73.388;2022-10-28T04:46:14;101749.41;;;-2.01;70.14
50292;BME280;36190;54.980;73.388;2022-10-28T04:48:43;101747.50;;;-1.96;69.88
50292;BME280;36190;54.980;73.388;2022-10-28T04:51:12;101744.75;;;-1.92;69.67
50292;BME280;36190;54.980;73.388;2022-10-28T04:53:39;101735.13;;;-1.90;69.76
50292;BME280;36190;54.980;73.388;2022-10-28T04:56:07;101738.22;;;-1.81;69.64
50292;BME280;36190;54.980;73.388;2022-10-28T04:58:35;101740.56;;;-1.71;69.53
50292;BME280;36190;54.980;73.388;2022-10-28T05:01:05;101731.50;;;-1.62;69.28
50292;BME280;36190;54.980;73.388;2022-10-28T05:03:33;101744.38;;;-1.56;68.93
50292;BME280;36190;54.980;73.388;2022-10-28T05:06:02;101735.66;;;-1.57;68.63
50292;BME280;36190;54.980;73.388;2022-10-28T05:08:29;101742.59;;;-1.56;68.83
50292;BME280;36190;54.980;73.388;2022-10-28T05:10:56;101752.09;;;-1.53;68.65
50292;BME280;36190;54.980;73.388;2022-10-28T05:13:24;101738.09;;;-1.52;68.21
50292;BME280;36190;54.980;73.388;2022-10-28T05:15:51;101737.44;;;-1.57;68.22
50292;BME280;36190;54.980;73.388;2022-10-28T05:18:19;101740.03;;;-1.57;68.40
50292;BME280;36190;54.980;73.388;2022-10-28T05:20:46;101724.13;;;-1.51;68.17
50292;BME280;36190;54.980;73.388;2022-10-28T05:23:21;101738.84;;;-1.48;68.11
50292;BME280;36190;54.980;73.388;2022-10-28T05:25:48;101732.06;;;-1.54;67.73
50292;BME280;36190;54.980;73.388;2022-10-28T05:28:16;101733.09;;;-1.58;67.92
50292;BME280;36190;54.980;73.388;2022-10-28T05:30:43;101740.97;;;-1.58;67.92
50292;BME280;36190;54.980;73.388;2022-10-28T05:33:11;101738.22;;;-1.55;67.79
50292;BME280;36190;54.980;73.388;2022-10-28T05:35:39;101733.94;;;-1.58;67.70
50292;BME280;36190;54.980;73.388;2022-10-28T05:38:06;101731.41;;;-1.59;67.94
50292;BME280;36190;54.980;73.388;2022-10-28T05:40:35;101725.00;;;-1.52;67.89
50292;BME280;36190;54.980;73.388;2022-10-28T05:43:02;101737.88;;;-1.46;67.82
50292;BME280;36190;54.980;73.388;2022-10-28T05:45:30;101739.22;;;-1.35;67.33
50292;BME280;36190;54.980;73.388;2022-10-28T05:47:58;101731.44;;;-1.37;67.14
50292;BME280;36190;54.980;73.388;2022-10-28T05:50:25;101733.03;;;-1.33;67.18
50292;BME280;36190;54.980;73.388;2022-10-28T05:52:54;101720.03;;;-1.34;67.01
50292;BME280;36190;54.980;73.388;2022-10-28T05:55:23;101717.69;;;-1.20;67.09
50292;BME280;36190;54.980;73.388;2022-10-28T05:57:54;101727.81;;;-1.11;67.08
50292;BME280;36190;54.980;73.388;2022-10-28T06:00:23;101718.91;;;-1.05;66.87
50292;BME280;36190;54.980;73.388;2022-10-28T06:02:50;101747.28;;;-0.94;66.24
50292;BME280;36190;54.980;73.388;2022-10-28T06:05:18;101721.88;;;-0.92;65.90
50292;BME280;36190;54.980;73.388;2022-10-28T06:07:46;101725.28;;;-0.90;65.62
50292;BME280;36190;54.980;73.388;2022-10-28T06:10:13;101712.97;;;-0.88;65.46
50292;BME280;36190;54.980;73.388;2022-10-28T06:12:40;101732.97;;;-0.85;65.73
50292;BME280;36190;54.980;73.388;2022-10-28T06:15:10;101716.13;;;-0.79;65.46
50292;BME280;36190;54.980;73.388;2022-10-28T06:17:37;101709.88;;;-0.75;65.13
50292;BME280;36190;54.980;73.388;2022-10-28T06:20:05;101690.47;;;-0.71;65.29
50292;BME280;36190;54.980;73.388;2022-10-28T06:22:33;101719.19;;;-0.68;65.23
50292;BME280;36190;54.980;73.388;2022-10-28T06:25:00;101708.44;;;-0.62;65.06
50292;BME280;36190;54.980;73.388;2022-10-28T06:27:28;101701.25;;;-0.57;64.86
50292;BME280;36190;54.980;73.388;2022-10-28T06:29:55;101701.91;;;-0.51;64.87
50292;BME280;36190;54.980;73.388;2022-10-28T06:32:24;101695.38;;;-0.41;64.71
50292;BME280;36190;54.980;73.388;2022-10-28T06:34:51;101697.72;;;-0.35;64.58
50292;BME280;36190;54.980;73.388;2022-10-28T06:37:19;101696.66;;;-0.31;64.37
50292;BME280;36190;54.980;73.388;2022-10-28T06:39:46;101686.91;;;-0.27;63.96
50292;BME280;36190;54.980;73.388;2022-10-28T06:42:16;101683.16;;;-0.21;63.83
50292;BME280;36190;54.980;73.388;2022-10-28T06:44:44;101680.53;;;-0.21;63.57
50292;BME280;36190;54.980;73.388;2022-10-28T06:47:11;101675.44;;;-0.24;63.54
50292;BME280;36190;54.980;73.388;2022-10-28T06:49:40;101679.44;;;-0.16;63.75
50292;BME280;36190;54.980;73.388;2022-10-28T06:52:08;101688.41;;;-0.01;63.79
50292;BME280;36190;54.980;73.388;2022-10-28T06:54:35;101682.47;;;0.15;63.38
50292;BME280;36190;54.980;73.388;2022-10-28T06:57:02;101675.69;;;0.30;63.13
50292;BME280;36190;54.980;73.388;2022-10-28T06:59:30;101673.28;;;0.45;63.07
50292;BME280;36190;54.980;73.388;2022-10-28T07:01:57;101679.16;;;0.69;62.60
50292;BME280;36190;54.980;73.388;2022-10-28T07:04:24;101689.09;;;0.81;62.43
50292;BME280;36190;54.980;73.388;2022-10-28T07:06:55;101682.91;;;0.82;61.76
50292;BME280;36190;54.980;73.388;2022-10-28T07:09:23;101660.69;;;0.90;61.67
50292;BME280;36190;54.980;73.388;2022-10-28T07:11:50;101671.75;;;1.14;62.00
50292;BME280;36190;54.980;73.388;2022-10-28T07:14:18;101667.84;;;1.58;61.52
50292;BME280;36190;54.980;73.388;2022-10-28T07:16:45;101660.41;;;1.84;60.03
50292;BME280;36190;54.980;73.388;2022-10-28T07:19:12;101677.25;;;1.98;60.00
50292;BME280;36190;54.980;73.388;2022-10-28T07:21:40;101655.88;;;2.04;59.99
50292;BME280;36190;54.980;73.388;2022-10-28T07:24:09;101656.19;;;1.98;59.55
50292;BME280;36190;54.980;73.388;2022-10-28T07:26:37;101656.84;;;1.85;59.93
50292;BME280;36190;54.980;73.388;2022-10-28T07:29:04;101664.59;;;1.71;59.45
50292;BME280;36190;54.980;73.388;2022-10-28T07:31:31;101647.13;;;1.52;60.11
50292;BME280;36190;54.980;73.388;2022-10-28T07:33:59;101634.41;;;1.43;60.45
50292;BME280;36190;54.980;73.388;2022-10-28T07:36:26;101645.09;;;1.40;60.61
50292;BME280;36190;54.980;73.388;2022-10-28T07:38:53;101650.19;;;1.43;60.75
50292;BME280;36190;54.980;73.388;2022-10-28T07:41:23;101653.75;;;1.42;60.47
50292;BME280;36190;54.980;73.388;2022-10-28T07:43:50;101641.00;;;1.34;60.35
50292;BME280;36190;54.980;73.388;2022-10-28T07:46:18;101634.44;;;1.25;60.41
50292;BME280;36190;54.980;73.388;2022-10-28T07:48:45;101645.81;;;1.26;60.86
50292;BME280;36190;54.980;73.388;2022-10-28T07:51:14;101632.44;;;1.30;60.81
50292;BME280;36190;54.980;73.388;2022-10-28T07:53:41;101649.38;;;1.42;60.66
50292;BME280;36190;54.980;73.388;2022-10-28T07:56:10;101639.84;;;1.40;60.61
50292;BME280;36190;54.980;73.388;2022-10-28T07:58:41;101632.41;;;1.48;60.77
50292;BME280;36190;54.980;73.388;2022-10-28T08:01:10;101634.59;;;1.40;60.72
50292;BME280;36190;54.980;73.388;2022-10-28T08:03:38;101630.88;;;1.44;61.03
50292;BME280;36190;54.980;73.388;2022-10-28T08:06:08;101616.94;;;1.42;60.72
50292;BME280;36190;54.980;73.388;2022-10-28T08:08:36;101622.53;;;1.35;61.00
50292;BME280;36190;54.980;73.388;2022-10-28T08:11:10;101631.25;;;1.36;60.89
50292;BME280;36190;54.980;73.388;2022-10-28T08:13:37;101609.69;;;1.47;61.39
50292;BME280;36190;54.980;73.388;2022-10-28T08:16:06;101616.56;;;1.49;60.80
50292;BME280;36190;54.980;73.388;2022-10-28T08:18:34;101608.13;;;1.43;61.04
50292;BME280;36190;54.980;73.388;2022-10-28T08:21:03;101606.75;;;1.35;61.04
50292;BME280;36190;54.980;73.388;2022-10-28T08:23:30;101625.69;;;1.42;60.95
50292;BME280;36190;54.980;73.388;2022-10-28T08:25:58;101617.13;;;1.39;61.06
50292;BME280;36190;54.980;73.388;2022-10-28T08:28:26;101622.16;;;1.26;60.87
50292;BME280;36190;54.980;73.388;2022-10-28T08:30:59;101616.25;;;1.20;61.05
50292;BME280;36190;54.980;73.388;2022-10-28T08:33:30;101603.63;;;1.09;61.07
50292;BME280;36190;54.980;73.388;2022-10-28T08:35:57;101613.56;;;1.04;61.29
50292;BME280;36190;54.980;73.388;2022-10-28T08:38:25;101620.97;;;0.96;61.60
50292;BME280;36190;54.980;73.388;2022-10-28T08:40:57;101601.78;;;0.94;61.54
50292;BME280;36190;54.980;73.388;2022-10-28T08:43:34;101602.41;;;0.99;61.67
50292;BME280;36190;54.980;73.388;2022-10-28T08:46:12;101626.94;;;1.00;61.40
50292;BME280;36190;54.980;73.388;2022-10-28T08:48:46;101616.94;;;0.89;61.63
50292;BME280;36190;54.980;73.388;2022-10-28T08:51:16;101586.78;;;0.78;61.77
50292;BME280;36190;54.980;73.388;2022-10-28T08:53:46;101589.53;;;0.75;62.00
50292;BME280;36190;54.980;73.388;2022-10-28T08:56:26;101598.91;;;0.81;62.21
50292;BME280;36190;54.980;73.388;2022-10-28T08:58:58;101600.41;;;0.87;62.06
50292;BME280;36190;54.980;73.388;2022-10-28T09:01:44;101604.09;;;0.82;61.94
50292;BME280;36190;54.980;73.388;2022-10-28T09:04:21;101596.25;;;0.81;62.13
50292;BME280;36190;54.980;73.388;2022-10-28T09:06:50;101605.41;;;0.74;62.32
50292;BME280;36190;54.980;73.388;2022-10-28T09:09:20;101592.63;;;0.66;62.41
50292;BME280;36190;54.980;73.388;2022-10-28T09:12:01;101586.31;;;0.70;62.93
50292;BME280;36190;54.980;73.388;2022-10-28T09:14:42;101598.19;;;0.77;62.43
50292;BME280;36190;54.980;73.388;2022-10-28T09:17:16;101581.88;;;0.71;62.52
50292;BME280;36190;54.980;73.388;2022-10-28T09:19:49;101600.53;;;0.84;62.30
50292;BME280;36190;54.980;73.388;2022-10-28T09:22:26;101590.94;;;0.82;62.30
50292;BME280;36190;54.980;73.388;2022-10-28T09:25:00;101597.72;;;0.69;62.20
50292;BME280;36190;54.980;73.388;2022-10-28T09:27:45;101591.47;;;0.72;62.26
50292;BME280;36190;54.980;73.388;2022-10-28T09:30:30;101602.97;;;0.69;62.46
50292;BME280;36190;54.980;73.388;2022-10-28T09:33:09;101582.13;;;0.66;62.52
50292;BME280;36190;54.980;73.388;2022-10-28T09:35:46;101587.06;;;0.72;62.50
50292;BME280;36190;54.980;73.388;2022-10-28T09:38:20;101599.13;;;0.76;62.39
50292;BME280;36190;54.980;73.388;2022-10-28T09:40:54;101589.53;;;0.75;62.20
50292;BME280;36190;54.980;73.388;2022-10-28T09:43:25;101601.44;;;0.65;62.22
50292;BME280;36190;54.980;73.388;2022-10-28T09:45:59;101584.03;;;0.62;62.52
50292;BME280;36190;54.980;73.388;2022-10-28T09:48:32;101582.72;;;0.53;62.38
50292;BME280;36190;54.980;73.388;2022-10-28T09:51:01;101589.50;;;0.58;62.74
50292;BME280;36190;54.980;73.388;2022-10-28T09:53:38;101596.47;;;0.59;62.65
50292;BME280;36190;54.980;73.388;2022-10-28T09:56:08;101582.50;;;0.58;62.81
50292;BME280;36190;54.980;73.388;2022-10-28T09:58:36;101593.59;;;0.63;62.63
50292;BME280;36190;54.980;73.388;2022-10-28T10:01:05;101597.53;;;0.54;62.59
50292;BME280;36190;54.980;73.388;2022-10-28T10:03:32;101591.94;;;0.43;62.87
50292;BME280;36190;54.980;73.388;2022-10-28T10:06:06;101601.81;;;0.38;63.16
50292;BME280;36190;54.980;73.388;2022-10-28T10:08:38;101588.81;;;0.35;63.16
50292;BME280;36190;54.980;73.388;2022-10-28T10:11:12;101585.19;;;0.37;63.26
50292;BME280;36190;54.980;73.388;2022-10-28T10:13:42;101592.38;;;0.34;63.28
50292;BME280;36190;54.980;73.388;2022-10-28T10:16:14;101597.91;;;0.27;63.49
50292;BME280;36190;54.980;73.388;2022-10-28T10:18:44;101579.97;;;0.18;63.64
50292;BME280;36190;54.980;73.388;2022-10-28T10:21:14;101610.69;;;0.16;63.60
50292;BME280;36190;54.980;73.388;2022-10-28T10:23:44;101586.84;;;0.02;63.92
50292;BME280;36190;54.980;73.388;2022-10-28T10:26:14;101579.31;;;-0.06;64.17
50292;BME280;36190;54.980;73.388;2022-10-28T10:28:45;101555.34;;;-0.18;64.22
50292;BME280;36190;54.980;73.388;2022-10-28T10:31:19;101564.41;;;-0.06;64.25
50292;BME280;36190;54.980;73.388;2022-10-28T10:33:49;101583.22;;;0.04;64.38
50292;BME280;36190;54.980;73.388;2022-10-28T10:36:20;101621.66;;;0.05;64.24
50292;BME280;36190;54.980;73.388;2022-10-28T10:38:50;101598.25;;;0.01;64.25
50292;BME280;36190;54.980;73.388;2022-10-28T10:41:33;101577.47;;;-0.04;64.50
50292;BME280;36190;54.980;73.388;2022-10-28T10:44:01;101576.91;;;-0.11;64.60
50292;BME280;36190;54.980;73.388;2022-10-28T10:47:18;101570.38;;;-0.02;64.81
50292;BME280;36190;54.980;73.388;2022-10-28T10:49:47;101578.34;;;-0.04;64.72
50292;BME280;36190;54.980;73.388;2022-10-28T10:52:21;101563.66;;;-0.08;64.59
50292;BME280;36190;54.980;73.388;2022-10-28T10:55:02;101574.41;;;-0.14;64.80
50292;BME280;36190;54.980;73.388;2022-10-28T10:57:32;101578.09;;;-0.18;64.71
50292;BME280;36190;54.980;73.388;2022-10-28T11:00:00;101556.25;;;-0.19;64.75
50292;BME280;36190;54.980;73.388;2022-10-28T11:02:32;101571.94;;;-0.17;65.07
50292;BME280;36190;54.980;73.388;2022-10-28T11:05:02;101578.09;;;-0.18;64.87
50292;BME280;36190;54.980;73.388;2022-10-28T11:07:32;101605.69;;;-0.29;65.06
50292;BME280;36190;54.980;73.388;2022-10-28T11:10:00;101567.78;;;-0.42;65.42
50292;BME280;36190;54.980;73.388;2022-10-28T11:12:30;101572.47;;;-0.49;65.75
50292;BME280;36190;54.980;73.388;2022-10-28T11:15:02;101567.28;;;-0.50;66.10
50292;BME280;36190;54.980;73.388;2022-10-28T11:17:31;101550.16;;;-0.59;65.98
50292;BME280;36190;54.980;73.388;2022-10-28T11:20:06;101567.59;;;-0.58;66.21
50292;BME280;36190;54.980;73.388;2022-10-28T11:22:56;101565.06;;;-0.60;66.43
50292;BME280;36190;54.980;73.388;2022-10-28T11:25:34;101566.88;;;-0.62;66.65
50292;BME280;36190;54.980;73.388;2022-10-28T11:28:13;101580.06;;;-0.63;66.60
50292;BME280;36190;54.980;73.388;2022-10-28T11:30:53;101576.78;;;-0.68;66.70
50292;BME280;36190;54.980;73.388;2022-10-28T11:33:32;101557.66;;;-0.71;66.92
50292;BME280;36190;54.980;73.388;2022-10-28T11:36:10;101547.56;;;-0.80;67.15
50292;BME280;36190;54.980;73.388;2022-10-28T11:38:55;101562.69;;;-0.87;67.43
50292;BME280;36190;54.980;73.388;2022-10-28T11:41:36;101546.19;;;-0.89;67.44
50292;BME280;36190;54.980;73.388;2022-10-28T11:44:17;101549.00;;;-0.93;67.58
50292;BME280;36190;54.980;73.388;2022-10-28T11:46:54;101526.13;;;-1.11;67.71
50292;BME280;36190;54.980;73.388;2022-10-28T11:52:51;101537.41;;;-1.08;68.33
50292;BME280;36190;54.980;73.388;2022-10-28T11:55:32;101538.75;;;-1.20;68.70
50292;BME280;36190;54.980;73.388;2022-10-28T11:58:10;101544.19;;;-1.25;68.87
50292;BME280;36190;54.980;73.388;2022-10-28T12:00:56;101539.88;;;-1.26;69.04
50292;BME280;36190;54.980;73.388;2022-10-28T12:03:51;101528.72;;;-1.31;69.38
50292;BME280;36190;54.980;73.388;2022-10-28T12:06:28;101547.06;;;-1.31;69.46
50292;BME280;36190;54.980;73.388;2022-10-28T12:09:08;101547.84;;;-1.29;69.62
50292;BME280;36190;54.980;73.388;2022-10-28T12:11:50;101536.34;;;-1.25;69.69
50292;BME280;36190;54.980;73.388;2022-10-28T12:14:29;101561.72;;;-1.27;69.91
50292;BME280;36190;54.980;73.388;2022-10-28T12:17:03;101550.47;;;-1.29;70.13
50292;BME280;36190;54.980;73.388;2022-10-28T12:19:42;101557.47;;;-1.30;70.51
50292;BME280;36190;54.980;73.388;2022-10-28T12:22:12;101543.56;;;-1.32;70.47
50292;BME280;36190;54.980;73.388;2022-10-28T12:24:43;101543.75;;;-1.36;70.49
50292;BME280;36190;54.980;73.388;2022-10-28T12:27:16;101541.09;;;-1.35;70.69
50292;BME280;36190;54.980;73.388;2022-10-28T12:29:48;101514.31;;;-1.42;70.88
50292;BME280;36190;54.980;73.388;2022-10-28T12:32:20;101544.38;;;-1.30;70.71
50292;BME280;36190;54.980;73.388;2022-10-28T12:34:52;101544.25;;;-1.27;70.69
50292;BME280;36190;54.980;73.388;2022-10-28T12:37:23;101517.47;;;-1.33;70.72
50292;BME280;36190;54.980;73.388;2022-10-28T12:39:58;101519.41;;;-1.39;70.83
50292;BME280;36190;54.980;73.388;2022-10-28T12:42:31;101529.66;;;-1.32;70.83
50292;BME280;36190;54.980;73.388;2022-10-28T12:45:03;101523.50;;;-1.31;70.90
50292;BME280;36190;54.980;73.388;2022-10-28T12:47:37;101516.50;;;-1.31;70.92
50292;BME280;36190;54.980;73.388;2022-10-28T12:50:12;101542.75;;;-1.32;70.86
50292;BME280;36190;54.980;73.388;2022-10-28T12:52:50;101520.28;;;-1.38;71.03
50292;BME280;36190;54.980;73.388;2022-10-28T12:55:27;101497.25;;;-1.52;71.08
50292;BME280;36190;54.980;73.388;2022-10-28T12:58:02;101514.41;;;-1.45;71.21
50292;BME280;36190;54.980;73.388;2022-10-28T13:00:34;101521.50;;;-1.47;71.30
50292;BME280;36190;54.980;73.388;2022-10-28T13:03:04;101524.25;;;-1.50;71.38
50292;BME280;36190;54.980;73.388;2022-10-28T13:05:38;101501.91;;;-1.59;71.42
50292;BME280;36190;54.980;73.388;2022-10-28T13:11:48;101528.66;;;-1.52;71.77